Time;durP1;ratioP1;P1;durP2;ratioP2;P2;SDS_P1;SDS_P2;PMS_P1;PMS_P2;Temp;Humidity;BMP_temperature;BMP_pressure;BME280_temperature;BME280_humidity;BME280_pressure;Samples;Min_cycle;Max_cycle;Signal;HPM_P1;HPM_P2
2022/07/29 00:00:57;;;;;;;4.50;0.40;;;;;;;19.53;63.36;101386.31;7382769;19;20081;-66
2022/07/29 00:03:24;;;;;;;3.92;0.40;;;;;;;19.51;63.36;101380.34;7381003;19;20015;-66
2022/07/29 00:05:52;;;;;;;3.15;0.50;;;;;;;19.51;63.54;101373.16;7382515;19;20017;-66
2022/07/29 00:08:20;;;;;;;2.45;0.40;;;;;;;19.50;63.75;101374.19;7382820;19;20542;-67
2022/07/29 00:10:47;;;;;;;4.63;0.50;;;;;;;19.51;63.94;101375.00;7384664;19;20583;-66
2022/07/29 00:13:14;;;;;;;4.85;0.70;;;;;;;19.50;64.25;101368.03;7381766;19;20014;-66
2022/07/29 00:15:41;;;;;;;2.28;0.30;;;;;;;19.49;64.28;101369.06;7382048;19;20011;-66
2022/07/29 00:18:08;;;;;;;3.10;0.82;;;;;;;19.43;64.55;101367.13;7381376;19;20114;-66
2022/07/29 00:20:35;;;;;;;7.00;0.70;;;;;;;19.43;64.37;101367.97;7378148;19;20018;-63
2022/07/29 00:23:02;;;;;;;4.68;0.40;;;;;;;19.44;64.56;101374.97;7382411;19;20018;-63
2022/07/29 00:25:28;;;;;;;5.60;0.55;;;;;;;19.37;64.69;101371.41;7383187;19;20049;-63
2022/07/29 00:27:59;;;;;;;1.75;0.40;;;;;;;19.36;64.96;101369.75;7382932;19;20006;-63
2022/07/29 00:30:26;;;;;;;2.50;0.40;;;;;;;19.38;65.94;101369.56;7382790;19;20471;-63
2022/07/29 00:32:53;;;;;;;4.70;0.40;;;;;;;19.37;65.51;101360.72;7381620;19;20022;-61
2022/07/29 00:38:05;;;;;;;8.75;1.15;;;;;;;19.38;65.82;101366.91;7381717;19;20356;-62
2022/07/29 00:40:32;;;;;;;3.70;0.55;;;;;;;19.38;65.73;101358.91;7381343;19;20015;-62
2022/07/29 00:42:59;;;;;;;2.45;0.40;;;;;;;19.39;65.96;101357.88;7382268;19;20041;-62
2022/07/29 00:45:26;;;;;;;3.85;0.45;;;;;;;19.41;65.99;101353.16;7384482;19;20499;-61
2022/07/29 00:47:58;;;;;;;2.75;0.45;;;;;;;19.40;66.22;101354.19;7390514;19;20098;-66
2022/07/29 00:50:25;;;;;;;3.63;0.52;;;;;;;19.37;66.08;101350.06;7387335;19;20341;-66
2022/07/29 00:52:53;;;;;;;2.38;0.35;;;;;;;19.37;66.33;101342.06;7387792;19;20013;-66
2022/07/29 00:55:20;;;;;;;1.85;0.32;;;;;;;19.37;66.24;101346.56;7389964;19;20011;-65
2022/07/29 00:57:47;;;;;;;2.75;0.35;;;;;;;19.37;66.52;101346.56;7389876;19;20089;-66
2022/07/29 01:00:20;;;;;;;4.20;0.30;;;;;;;19.35;66.41;101346.75;7389676;19;20620;-66
2022/07/29 01:02:48;;;;;;;1.42;0.40;;;;;;;19.34;66.82;101347.78;7389293;19;20379;-66
2022/07/29 01:05:18;;;;;;;3.97;0.30;;;;;;;19.33;67.05;101343.47;7387255;19;20018;-65
2022/07/29 01:07:46;;;;;;;2.60;0.50;;;;;;;19.31;66.82;101339.34;7388820;19;20070;-66
2022/07/29 01:10:15;;;;;;;2.90;0.40;;;;;;;19.32;66.90;101336.47;7390337;19;20490;-66
2022/07/29 01:12:44;;;;;;;3.17;0.40;;;;;;;19.34;66.74;101342.47;7387743;19;20018;-66
2022/07/29 01:15:12;;;;;;;2.63;0.30;;;;;;;19.33;66.89;101338.13;7389209;19;20097;-62
2022/07/29 01:17:58;;;;;;;4.35;0.70;;;;;;;19.34;66.99;101339.78;7389568;19;20146;-62
2022/07/29 01:20:31;;;;;;;2.80;0.55;;;;;;;19.34;67.12;101336.28;7384778;19;20018;-66
2022/07/29 01:23:06;;;;;;;5.57;0.55;;;;;;;19.34;66.78;101334.44;7388003;19;20483;-66
2022/07/29 01:25:45;;;;;;;3.50;0.40;;;;;;;19.34;66.99;101339.78;7388221;19;20033;-65
2022/07/29 01:28:31;;;;;;;5.88;1.27;;;;;;;19.33;67.00;101347.97;7388263;19;20332;-66
2022/07/29 01:31:00;;;;;;;2.28;0.70;;;;;;;19.31;67.05;101353.50;7387725;19;20042;-66
2022/07/29 01:33:50;;;;;;;2.85;0.40;;;;;;;19.29;67.20;101347.56;7385142;19;20027;-65
2022/07/29 01:36:32;;;;;;;3.63;0.50;;;;;;;19.30;67.42;101348.38;7387760;19;20114;-66
2022/07/29 01:39:18;;;;;;;2.42;0.30;;;;;;;19.31;67.62;101350.00;7386791;19;20025;-66
2022/07/29 01:41:55;;;;;;;3.03;0.30;;;;;;;19.32;67.58;101351.66;7389191;19;20011;-66
2022/07/29 01:44:48;;;;;;;3.08;0.40;;;;;;;19.29;67.48;101349.41;7388179;19;20018;-66
2022/07/29 01:47:20;;;;;;;4.32;0.30;;;;;;;19.26;67.79;101339.94;7386323;19;20010;-67
2022/07/29 01:49:51;;;;;;;6.20;0.40;;;;;;;19.23;68.23;101337.66;7384449;19;20493;-66
2022/07/29 01:52:31;;;;;;;2.55;0.40;;;;;;;19.23;67.95;101346.50;7386943;19;20015;-66
2022/07/29 01:55:04;;;;;;;4.47;0.30;;;;;;;19.22;68.17;101339.50;7388054;19;20360;-67
2022/07/29 01:57:34;;;;;;;3.13;0.40;;;;;;;19.23;67.99;101341.16;7383885;19;20014;-66
2022/07/29 02:00:03;;;;;;;2.97;0.50;;;;;;;19.21;67.98;101351.19;7383020;19;20017;-66
2022/07/29 02:02:32;;;;;;;2.10;0.50;;;;;;;19.16;68.38;101342.97;7387900;19;20010;-66
2022/07/29 02:05:02;;;;;;;2.45;0.30;;;;;;;19.14;68.47;101346.84;7385288;19;20022;-67
2022/07/29 02:07:32;;;;;;;4.57;0.40;;;;;;;19.12;68.61;101332.88;7387167;19;20073;-66
2022/07/29 02:10:02;;;;;;;2.17;0.30;;;;;;;19.11;69.01;101341.91;7386062;19;20024;-66
2022/07/29 02:12:31;;;;;;;2.50;0.20;;;;;;;19.10;68.92;101340.25;7386997;19;20019;-66
2022/07/29 02:15:01;;;;;;;3.75;0.30;;;;;;;19.07;68.91;101341.47;7387600;19;20398;-68
2022/07/29 02:17:39;;;;;;;1.90;0.30;;;;;;;19.06;68.96;101333.66;7388402;19;20018;-65
2022/07/29 02:20:08;;;;;;;4.60;0.75;;;;;;;19.05;69.21;101334.66;7382797;19;20021;-66
2022/07/29 02:22:37;;;;;;;1.92;0.40;;;;;;;19.04;69.17;101335.72;7383297;19;20025;-66
2022/07/29 02:25:07;;;;;;;2.55;0.30;;;;;;;19.05;69.16;101335.50;7387074;19;20017;-66
2022/07/29 02:27:42;;;;;;;4.40;0.40;;;;;;;19.06;69.41;101341.66;7386134;19;20090;-65
2022/07/29 02:30:10;;;;;;;4.20;0.98;;;;;;;19.06;69.25;101345.16;7386021;19;20639;-65
2022/07/29 02:32:41;;;;;;;2.65;0.30;;;;;;;19.04;69.44;101338.38;7384812;19;20022;-65
2022/07/29 02:35:12;;;;;;;1.83;0.40;;;;;;;19.03;69.41;101332.22;7381428;19;20014;-65
2022/07/29 02:37:39;;;;;;;1.65;0.25;;;;;;;19.00;69.62;101340.59;7383501;19;20030;-67
2022/07/29 02:40:11;;;;;;;3.88;0.40;;;;;;;18.94;69.70;101332.56;7384695;19;20363;-67
2022/07/29 02:42:42;;;;;;;1.70;0.50;;;;;;;18.95;69.73;101328.84;7385298;19;20110;-72
2022/07/29 02:45:09;;;;;;;3.30;0.32;;;;;;;18.95;70.11;101336.84;7386255;19;20041;-69
2022/07/29 02:47:38;;;;;;;3.25;0.60;;;;;;;18.94;70.11;101335.22;7386002;19;20010;-63
2022/07/29 02:50:20;;;;;;;3.53;0.30;;;;;;;18.93;70.10;101336.25;7383584;19;20336;-63
2022/07/29 02:52:53;;;;;;;3.70;0.50;;;;;;;18.93;70.01;101339.75;7385324;19;20022;-67
2022/07/29 02:55:36;;;;;;;2.67;0.22;;;;;;;18.93;70.13;101341.59;7384825;19;20089;-68
2022/07/29 02:58:07;;;;;;;1.17;0.28;;;;;;;18.93;70.31;101336.25;7384244;19;20026;-66
2022/07/29 03:00:38;;;;;;;2.03;0.40;;;;;;;18.94;70.47;101340.56;7386173;19;20359;-66
2022/07/29 03:03:10;;;;;;;4.70;0.40;;;;;;;18.93;70.09;101342.41;7384687;19;20416;-67
2022/07/29 03:05:38;;;;;;;;;;;;;;;18.91;70.45;101338.28;7382184;19;20497;-66
2022/07/29 03:08:08;;;;;;;2.00;0.32;;;;;;;18.85;70.22;101342.53;7383437;19;19921;-66
2022/07/29 03:10:38;;;;;;;2.58;0.30;;;;;;;18.83;70.26;101338.44;7384925;19;20039;-68
2022/07/29 03:13:07;;;;;;;5.50;0.50;;;;;;;18.82;70.46;101340.28;7383762;19;20517;-66
2022/07/29 03:15:35;;;;;;;2.88;0.32;;;;;;;18.78;70.18;101337.19;7384173;19;20020;-63
2022/07/29 03:18:03;;;;;;;2.10;0.47;;;;;;;18.78;70.35;101345.19;7386361;19;20018;-62
2022/07/29 03:20:30;;;;;;;2.25;0.40;;;;;;;18.74;70.12;101346.56;7378432;19;20412;-63
2022/07/29 03:22:57;;;;;;;1.67;0.45;;;;;;;18.65;70.10;101341.56;7383977;19;20021;-62
2022/07/29 03:25:24;;;;;;;1.42;0.45;;;;;;;18.61;70.65;101348.31;7384318;19;20020;-62
2022/07/29 03:27:51;;;;;;;22.50;1.27;;;;;;;18.58;70.88;101359.38;7386219;19;20014;-62
2022/07/29 03:30:18;;;;;;;5.65;0.50;;;;;;;18.55;71.07;101343.72;7383900;19;20029;-63
2022/07/29 03:32:48;;;;;;;2.92;0.40;;;;;;;18.53;71.03;101359.91;7382466;19;20278;-63
2022/07/29 03:35:19;;;;;;;5.30;0.40;;;;;;;18.55;70.97;101351.72;7380681;19;20340;-63
2022/07/29 03:37:46;;;;;;;4.57;0.55;;;;;;;18.53;71.05;101343.09;7383035;19;20021;-62
2022/07/29 03:40:22;;;;;;;2.55;0.35;;;;;;;18.50;71.10;101351.44;7381861;19;20632;-62
2022/07/29 03:42:49;;;;;;;;;;;;;;;18.49;70.92;101352.50;7384200;19;20010;-62
2022/07/29 03:45:18;;;;;;;2.97;0.40;;;;;;;18.47;71.25;101344.69;7384447;19;19921;-61
2022/07/29 03:47:50;;;;;;;4.53;0.45;;;;;;;18.48;71.28;101340.16;7385073;19;20015;-63
2022/07/29 03:50:24;;;;;;;2.65;0.30;;;;;;;18.47;71.38;101351.84;7381647;19;20014;-62
2022/07/29 03:52:51;;;;;;;3.58;0.32;;;;;;;18.49;71.76;101339.16;7382260;19;20035;-63
2022/07/29 03:55:18;;;;;;;1.75;0.40;;;;;;;18.50;71.36;101341.63;7382617;19;20556;-63
2022/07/29 03:57:46;;;;;;;4.15;0.30;;;;;;;18.52;70.96;101336.09;7384151;19;20021;-63
2022/07/29 04:00:15;;;;;;;6.57;0.40;;;;;;;18.48;71.02;101333.00;7384254;19;20018;-63
2022/07/29 04:02:48;;;;;;;2.28;0.30;;;;;;;18.43;71.51;101343.41;7383369;19;20035;-63
2022/07/29 04:05:16;;;;;;;3.13;0.40;;;;;;;18.38;71.48;101343.16;7381948;19;20045;-62
2022/07/29 04:07:45;;;;;;;5.50;0.40;;;;;;;18.36;71.78;101350.50;7382943;19;20026;-62
2022/07/29 04:10:12;;;;;;;2.33;0.60;;;;;;;18.34;72.25;101350.69;7382626;19;20006;-62
2022/07/29 04:12:40;;;;;;;4.40;0.40;;;;;;;18.36;72.02;101355.84;7382988;19;20039;-62
2022/07/29 04:15:07;;;;;;;4.90;0.40;;;;;;;18.38;71.83;101352.00;7381425;19;20516;-63
2022/07/29 04:17:34;;;;;;;3.88;0.40;;;;;;;18.42;71.86;101351.59;7383453;19;20415;-62
2022/07/29 04:20:01;;;;;;;4.53;0.50;;;;;;;18.41;71.96;101356.09;7385162;19;20022;-62
2022/07/29 04:22:30;;;;;;;1.00;0.20;;;;;;;18.42;71.67;101355.09;7390131;19;20014;-62
2022/07/29 04:24:57;;;;;;;2.75;0.38;;;;;;;18.40;71.69;101357.09;7390159;19;20010;-61
2022/07/29 04:27:29;;;;;;;3.53;0.30;;;;;;;18.42;72.08;101352.41;7391889;19;20027;-63
2022/07/29 04:29:56;;;;;;;5.18;0.20;;;;;;;18.44;71.62;101361.03;7387985;19;20038;-62
2022/07/29 04:32:25;;;;;;;4.45;0.38;;;;;;;18.43;71.40;101359.41;7391255;19;20027;-63
2022/07/29 04:34:52;;;;;;;3.33;0.40;;;;;;;18.42;71.40;101362.25;7384588;19;20079;-63
2022/07/29 04:37:19;;;;;;;4.90;0.40;;;;;;;18.39;71.83;101364.28;7390512;19;20052;-63
2022/07/29 04:39:46;;;;;;;5.57;0.40;;;;;;;18.37;71.74;101358.31;7386489;19;20097;-63
2022/07/29 04:42:14;;;;;;;3.53;0.50;;;;;;;18.39;71.60;101361.59;7391310;19;20014;-63
2022/07/29 04:44:42;;;;;;;3.45;0.60;;;;;;;18.39;72.26;101366.09;7389233;19;20022;-63
2022/07/29 04:47:09;;;;;;;1.95;0.45;;;;;;;18.40;71.68;101365.09;7390608;19;20018;-63
2022/07/29 04:49:39;;;;;;;5.07;1.15;;;;;;;18.41;71.73;101356.09;7386198;19;20109;-63
2022/07/29 04:52:06;;;;;;;8.07;0.60;;;;;;;18.41;71.91;101363.25;7390668;19;20344;-63
2022/07/29 04:54:33;;;;;;;4.18;0.65;;;;;;;18.41;71.74;101364.09;7384569;19;20026;-63
2022/07/29 04:57:00;;;;;;;2.33;0.32;;;;;;;18.42;71.85;101360.41;7390803;19;20010;-63
2022/07/29 04:59:27;;;;;;;3.30;0.35;;;;;;;18.42;71.83;101370.25;7389438;19;20392;-63
2022/07/29 05:01:54;;;;;;;5.13;0.38;;;;;;;18.44;72.15;101368.22;7388787;19;20042;-66
2022/07/29 05:04:22;;;;;;;2.08;0.40;;;;;;;18.44;71.79;101369.03;7385336;19;20018;-66
2022/07/29 05:06:49;;;;;;;2.88;0.43;;;;;;;18.47;71.97;101359.84;7389289;19;20015;-67
2022/07/29 05:09:16;;;;;;;3.08;0.40;;;;;;;18.44;71.82;101365.56;7388903;19;20033;-66
2022/07/29 05:11:43;;;;;;;5.93;0.52;;;;;;;18.44;71.84;101365.56;7389274;19;20363;-67
2022/07/29 05:14:10;;;;;;;3.42;0.40;;;;;;;18.42;72.03;101362.25;7387346;19;20026;-67
2022/07/29 05:16:39;;;;;;;4.28;0.60;;;;;;;18.42;71.97;101360.41;7389195;19;20011;-66
2022/07/29 05:19:06;;;;;;;2.83;0.40;;;;;;;18.44;72.72;101353.03;7386225;19;20015;-66
2022/07/29 05:21:39;;;;;;;3.03;0.40;;;;;;;18.40;72.55;101357.09;7388645;19;20331;-68
2022/07/29 05:24:06;;;;;;;5.75;0.45;;;;;;;18.37;72.63;101354.84;7387616;19;20142;-65
2022/07/29 05:26:33;;;;;;;9.35;0.50;;;;;;;18.33;73.02;101359.72;7389978;19;20014;-66
2022/07/29 05:29:00;;;;;;;1.98;0.38;;;;;;;18.29;73.38;101357.59;7386606;19;20021;-66
2022/07/29 05:31:27;;;;;;;4.57;0.38;;;;;;;18.24;73.48;101363.50;7387440;19;20015;-65
2022/07/29 05:33:56;;;;;;;5.72;0.40;;;;;;;18.25;73.73;101359.84;7382447;19;20055;-65
2022/07/29 05:36:24;;;;;;;1.75;0.73;;;;;;;18.27;74.11;101362.31;7388354;19;20134;-66
2022/07/29 05:38:51;;;;;;;4.88;0.55;;;;;;;18.31;73.63;101361.75;7386435;19;20011;-65
2022/07/29 05:41:19;;;;;;;6.53;0.50;;;;;;;18.30;73.63;101364.59;7387067;19;20025;-66
2022/07/29 05:43:55;;;;;;;5.68;0.47;;;;;;;18.33;73.84;101364.22;7388059;19;20011;-66
2022/07/29 05:46:23;;;;;;;4.50;0.40;;;;;;;18.34;73.99;101372.00;7387532;19;20050;-63
2022/07/29 05:48:50;;;;;;;3.17;0.68;;;;;;;18.35;74.05;101368.34;7384730;19;20028;-62
2022/07/29 05:51:17;;;;;;;6.45;0.40;;;;;;;18.38;74.17;101365.31;7388787;19;20021;-63
2022/07/29 05:53:44;;;;;;;4.07;0.70;;;;;;;18.45;74.32;101375.19;7386520;19;20033;-62
2022/07/29 05:56:19;;;;;;;4.15;0.43;;;;;;;18.50;74.18;101370.09;7387264;19;20056;-67
2022/07/29 05:58:46;;;;;;;6.20;0.38;;;;;;;18.55;74.15;101373.06;7388157;19;20031;-62
2022/07/29 06:01:14;;;;;;;7.78;0.82;;;;;;;18.58;73.71;101381.50;7386052;19;20076;-63
2022/07/29 06:03:41;;;;;;;3.00;0.40;;;;;;;18.63;73.57;101375.59;7386291;19;20007;-62
2022/07/29 06:06:08;;;;;;;5.40;1.05;;;;;;;18.64;74.15;101374.59;7386280;19;20015;-65
2022/07/29 06:08:37;;;;;;;4.05;0.50;;;;;;;18.68;74.28;101383.84;7387070;19;20078;-61
2022/07/29 06:11:05;;;;;;;7.03;0.50;;;;;;;18.66;73.83;101383.22;7388215;19;20019;-64
2022/07/29 06:13:32;;;;;;;4.72;0.75;;;;;;;18.68;73.93;101382.00;7386576;19;20130;-63
2022/07/29 06:16:00;;;;;;;5.70;0.80;;;;;;;18.64;74.53;101386.06;7387033;19;20034;-63
2022/07/29 06:18:27;;;;;;;5.88;0.57;;;;;;;18.60;74.58;101382.13;7386660;19;20530;-63
2022/07/29 06:20:54;;;;;;;10.23;1.40;;;;;;;18.62;74.88;101396.09;7384467;19;20010;-62
2022/07/29 06:23:21;;;;;;;6.03;0.50;;;;;;;18.63;74.83;101395.09;7385871;19;20137;-63
2022/07/29 06:25:48;;;;;;;4.10;0.52;;;;;;;18.67;74.71;101407.03;7388029;19;20018;-62
2022/07/29 06:28:15;;;;;;;2.00;0.40;;;;;;;18.72;75.09;101407.28;7386651;19;20055;-63
2022/07/29 06:30:43;;;;;;;4.95;0.70;;;;;;;18.78;75.17;101406.50;7385894;19;20020;-63
2022/07/29 06:33:16;;;;;;;2.58;0.60;;;;;;;18.84;75.17;101402.25;7386493;19;20439;-63
2022/07/29 06:35:43;;;;;;;4.90;0.43;;;;;;;18.91;74.44;101399.63;7382623;19;20014;-62
2022/07/29 06:38:19;;;;;;;5.82;0.70;;;;;;;18.94;74.78;101401.91;7386033;19;20021;-62
2022/07/29 06:41:00;;;;;;;5.88;0.52;;;;;;;19.00;74.22;101403.78;7387502;19;20595;-62
2022/07/29 06:43:38;;;;;;;6.10;0.60;;;;;;;19.02;74.41;101399.94;7383487;19;20018;-64
2022/07/29 06:46:21;;;;;;;6.88;1.52;;;;;;;19.04;74.30;101397.06;7385757;19;20531;-63
2022/07/29 06:48:49;;;;;;;3.75;0.50;;;;;;;19.05;74.54;101402.19;7382864;19;20053;-61
2022/07/29 06:51:16;;;;;;;3.97;0.50;;;;;;;19.09;74.73;101397.31;7386103;19;20377;-67
2022/07/29 06:53:57;;;;;;;3.08;0.60;;;;;;;19.14;74.85;101400.22;7384876;19;20015;-63
2022/07/29 06:56:41;;;;;;;4.38;0.50;;;;;;;19.19;74.79;101398.63;7384932;19;20559;-63
2022/07/29 06:59:09;;;;;;;3.80;0.85;;;;;;;19.23;74.45;101402.53;7384711;19;20023;-63
2022/07/29 07:01:38;;;;;;;5.72;0.80;;;;;;;19.28;74.66;101401.97;7382687;19;20078;-63
2022/07/29 07:04:06;;;;;;;8.75;1.13;;;;;;;19.33;74.39;101407.53;7383210;19;20015;-63
2022/07/29 07:06:34;;;;;;;5.57;0.63;;;;;;;19.40;74.25;101405.72;7384754;19;20014;-63
2022/07/29 07:09:01;;;;;;;7.78;1.63;;;;;;;19.44;74.00;101401.69;7385680;19;20332;-63
2022/07/29 07:11:29;;;;;;;17.48;1.10;;;;;;;19.47;73.95;101408.47;7383726;19;20328;-63
2022/07/29 07:13:56;;;;;;;10.65;0.93;;;;;;;19.50;74.42;101402.75;7383415;19;20018;-63
2022/07/29 07:16:29;;;;;;;8.05;0.70;;;;;;;19.52;74.01;101404.19;7383175;19;20320;-63
2022/07/29 07:18:56;;;;;;;7.43;0.57;;;;;;;19.55;73.94;101411.00;7381913;19;20126;-62
2022/07/29 07:21:23;;;;;;;5.28;0.60;;;;;;;19.58;74.28;101413.25;7385179;19;20530;-61
2022/07/29 07:23:55;;;;;;;6.05;0.60;;;;;;;19.61;74.25;101410.16;7383162;19;20013;-62
2022/07/29 07:26:22;;;;;;;;;;;;;;;19.64;73.62;101412.47;7383795;19;20010;-62
2022/07/29 07:28:49;;;;;;;5.00;0.80;;;;;;;19.63;73.40;101421.50;7382824;19;19918;-62
2022/07/29 07:31:17;;;;;;;8.02;0.60;;;;;;;19.64;73.52;101420.47;7382646;19;20045;-62
2022/07/29 07:33:44;;;;;;;8.02;0.70;;;;;;;19.66;73.54;101428.31;7380401;19;20419;-62
2022/07/29 07:36:20;;;;;;;5.53;0.63;;;;;;;19.66;73.43;101421.09;7382545;19;20121;-62
2022/07/29 07:38:47;;;;;;;7.93;1.20;;;;;;;19.70;73.28;101419.69;7382570;19;20006;-65
2022/07/29 07:41:14;;;;;;;3.08;0.60;;;;;;;19.77;72.69;101422.38;7383119;19;20011;-66
2022/07/29 07:43:41;;;;;;;5.75;0.57;;;;;;;19.76;72.04;101424.22;7383233;19;20438;-66
2022/07/29 07:46:08;;;;;;;5.75;0.90;;;;;;;19.88;74.19;101432.50;7383845;19;20011;-66
2022/07/29 07:48:35;;;;;;;16.45;4.68;;;;;;;20.19;72.32;101426.66;7378868;19;20015;-66
2022/07/29 07:51:02;;;;;;;13.85;2.17;;;;;;;20.36;72.51;101433.34;7381822;19;20010;-66
2022/07/29 07:53:30;;;;;;;7.22;1.05;;;;;;;20.44;73.31;101431.28;7382937;19;20740;-66
2022/07/29 07:55:58;;;;;;;10.70;1.00;;;;;;;20.49;71.31;101428.81;7391326;19;20368;-67
2022/07/29 07:58:36;;;;;;;8.80;0.77;;;;;;;20.62;71.63;101433.34;7391599;19;20483;-66
2022/07/29 08:01:03;;;;;;;5.15;0.60;;;;;;;20.75;69.59;101435.25;7391341;19;20010;-67
2022/07/29 08:03:30;;;;;;;7.22;0.70;;;;;;;20.78;66.75;101424.13;7388919;19;20435;-63
2022/07/29 08:05:57;;;;;;;4.03;1.00;;;;;;;20.76;67.39;101427.03;7390153;19;20010;-63
2022/07/29 08:08:24;;;;;;;5.15;0.50;;;;;;;20.68;65.25;101429.03;7391738;19;20416;-67
2022/07/29 08:10:51;;;;;;;3.72;0.30;;;;;;;20.66;64.26;101421.25;7387496;19;20087;-67
2022/07/29 08:13:20;;;;;;;7.20;0.68;;;;;;;20.64;64.12;101420.63;7392410;19;20014;-66
2022/07/29 08:15:57;;;;;;;3.55;0.55;;;;;;;20.64;60.49;101427.81;7387528;19;20042;-63
2022/07/29 08:18:25;;;;;;;5.47;0.40;;;;;;;20.64;62.72;101431.31;7390926;19;20424;-61
2022/07/29 08:20:52;;;;;;;6.13;0.43;;;;;;;20.60;62.20;101423.91;7388354;19;20040;-63
2022/07/29 08:23:19;;;;;;;16.27;7.30;;;;;;;20.59;62.66;101433.78;7388431;19;20348;-63
2022/07/29 08:25:46;;;;;;;6.75;1.90;;;;;;;20.59;62.37;101432.94;7390397;19;20074;-62
2022/07/29 08:28:17;;;;;;;4.15;0.60;;;;;;;20.62;63.41;101438.72;7390210;19;20006;-62
2022/07/29 08:30:44;;;;;;;4.32;0.60;;;;;;;20.63;61.13;101436.84;7389016;19;20045;-63
2022/07/29 08:33:11;;;;;;;2.63;0.50;;;;;;;20.68;61.21;101437.91;7389539;19;20031;-63
2022/07/29 08:35:38;;;;;;;4.78;0.30;;;;;;;20.70;61.15;101432.34;7385719;19;20098;-63
2022/07/29 08:38:05;;;;;;;2.72;0.30;;;;;;;20.79;60.96;101434.63;7389439;19;20475;-63
2022/07/29 08:40:32;;;;;;;3.30;0.30;;;;;;;20.84;60.74;101436.69;7387218;19;20437;-63
2022/07/29 08:43:08;;;;;;;3.53;0.40;;;;;;;20.87;58.69;101441.63;7389275;19;20049;-65
2022/07/29 08:45:48;;;;;;;6.00;0.40;;;;;;;20.96;59.55;101444.94;7389471;19;20098;-67
2022/07/29 08:48:19;;;;;;;3.08;0.38;;;;;;;20.97;59.49;101439.38;7389154;19;20017;-66
2022/07/29 08:50:48;;;;;;;5.53;0.30;;;;;;;20.96;57.56;101435.06;7387409;19;20035;-66
2022/07/29 08:53:17;;;;;;;2.13;0.30;;;;;;;20.93;58.66;101424.75;7389027;19;20502;-67
2022/07/29 08:55:47;;;;;;;4.72;0.90;;;;;;;20.92;59.43;101436.50;7388174;19;20015;-63
2022/07/29 08:58:16;;;;;;;6.35;1.88;;;;;;;20.94;59.81;101429.06;7387141;19;20026;-63
2022/07/29 09:00:52;;;;;;;3.60;0.65;;;;;;;20.99;59.98;101429.28;7386996;19;20025;-63
2022/07/29 09:03:24;;;;;;;3.60;0.40;;;;;;;21.03;60.23;101425.16;7389619;19;20565;-63
2022/07/29 09:05:52;;;;;;;2.30;0.30;;;;;;;21.10;59.60;101425.16;7383519;19;20011;-63
2022/07/29 09:08:20;;;;;;;2.50;0.30;;;;;;;21.17;57.10;101431.38;7388246;19;20086;-63
2022/07/29 09:10:49;;;;;;;3.83;0.25;;;;;;;21.20;55.44;101423.75;7388071;19;20022;-63
2022/07/29 09:13:16;;;;;;;1.50;0.25;;;;;;;21.24;54.58;101424.13;7390252;19;20019;-62
2022/07/29 09:15:44;;;;;;;1.10;0.20;;;;;;;21.43;53.00;101425.97;7385212;19;20047;-63
2022/07/29 09:18:11;;;;;;;2.30;0.60;;;;;;;21.66;52.03;101420.97;7387294;19;20031;-61
2022/07/29 09:24:09;;;;;;;3.63;0.30;;;;;;;22.11;50.91;101434.41;7386990;19;20018;-63
2022/07/29 09:26:45;;;;;;;4.25;1.33;;;;;;;22.22;51.28;101423.03;7388052;19;20123;-63
2022/07/29 09:29:21;;;;;;;28.02;13.40;;;;;;;22.29;50.89;101425.69;7388425;19;20029;-63
2022/07/29 09:31:51;;;;;;;4.63;0.52;;;;;;;22.34;51.10;101423.16;7387485;19;20014;-62
2022/07/29 09:34:28;;;;;;;2.95;0.30;;;;;;;22.35;51.62;101422.13;7385805;19;20015;-63
2022/07/29 09:36:55;;;;;;;3.03;0.30;;;;;;;22.39;51.43;101424.16;7386753;19;20040;-62
2022/07/29 09:39:45;;;;;;;6.20;0.40;;;;;;;22.41;51.44;101422.06;7384592;19;20114;-63
2022/07/29 09:42:13;;;;;;;1.90;0.40;;;;;;;22.43;51.44;101421.88;7386193;19;20404;-63
2022/07/29 09:44:48;;;;;;;2.45;0.35;;;;;;;22.43;51.73;101420.00;7386696;19;20336;-64
2022/07/29 09:47:16;;;;;;;4.70;0.57;;;;;;;22.49;50.86;101429.88;7388070;19;20220;-63
2022/07/29 09:49:58;;;;;;;2.25;0.32;;;;;;;22.51;51.08;101416.22;7384320;19;20021;-63
2022/07/29 09:52:27;;;;;;;2.35;0.30;;;;;;;22.54;51.50;101430.06;7386445;19;20126;-63
2022/07/29 09:55:09;;;;;;;2.10;0.20;;;;;;;22.58;50.60;101417.03;7385501;19;20018;-63
2022/07/29 09:57:44;;;;;;;2.65;0.40;;;;;;;22.66;51.11;101418.59;7384891;19;20018;-63
2022/07/29 10:00:19;;;;;;;3.42;0.30;;;;;;;22.74;51.10;101418.38;7385917;19;20046;-63
2022/07/29 10:02:47;;;;;;;17.13;7.22;;;;;;;22.83;51.01;101425.13;7387393;19;20047;-63
2022/07/29 10:05:23;;;;;;;8.50;2.17;;;;;;;22.95;50.77;101428.75;7384769;19;20066;-66
2022/07/29 10:07:52;;;;;;;3.92;0.40;;;;;;;23.01;50.43;101420.63;7385813;19;20082;-66
2022/07/29 10:10:27;;;;;;;7.82;0.88;;;;;;;23.05;50.18;101421.03;7384735;19;20019;-66
2022/07/29 10:13:00;;;;;;;3.67;0.30;;;;;;;23.08;50.15;101420.56;7385526;19;20018;-67
2022/07/29 10:15:40;;;;;;;1.63;0.30;;;;;;;23.10;51.49;101415.00;7385009;19;20038;-66
2022/07/29 10:18:08;;;;;;;4.35;0.40;;;;;;;23.16;49.61;101409.53;7387537;19;20014;-66
2022/07/29 10:20:36;;;;;;;4.10;0.40;;;;;;;23.27;48.03;101408.81;7382409;19;20074;-67
2022/07/29 10:23:04;;;;;;;2.45;0.30;;;;;;;23.34;47.88;101411.44;7386958;19;20011;-66
2022/07/29 10:25:31;;;;;;;3.03;0.32;;;;;;;23.40;47.17;101418.63;7385198;19;20087;-66
2022/07/29 10:27:59;;;;;;;3.72;0.40;;;;;;;23.44;47.08;101412.56;7385133;19;20011;-65
2022/07/29 10:30:26;;;;;;;3.65;0.47;;;;;;;23.50;48.54;101412.75;7383462;19;20037;-67
2022/07/29 10:33:17;;;;;;;17.75;8.02;;;;;;;23.54;47.66;101411.25;7385169;19;20014;-66
2022/07/29 10:36:09;;;;;;;5.43;2.55;;;;;;;23.60;47.27;101413.06;7379778;19;20020;-68
2022/07/29 10:38:54;;;;;;;2.20;0.30;;;;;;;23.65;46.93;101414.03;7384627;19;20018;-67
2022/07/29 10:41:46;;;;;;;3.78;0.40;;;;;;;23.70;46.25;101424.91;7385214;19;20022;-66
2022/07/29 10:44:22;;;;;;;3.70;0.50;;;;;;;23.64;45.65;101419.63;7387066;19;20379;-67
2022/07/29 10:46:50;;;;;;;1.83;0.50;;;;;;;23.53;45.37;101421.19;7385390;19;20028;-66
2022/07/29 10:49:26;;;;;;;5.38;0.50;;;;;;;23.42;45.12;101417.34;7384460;19;20466;-66
2022/07/29 10:52:00;;;;;;;2.25;0.28;;;;;;;23.38;46.24;101418.00;7385378;19;20010;-66
2022/07/29 10:54:48;;;;;;;4.38;0.38;;;;;;;23.41;46.39;101420.25;7383801;19;20482;-67
2022/07/29 10:57:16;;;;;;;2.58;0.60;;;;;;;23.42;46.65;101417.34;7387076;19;20086;-66
2022/07/29 10:59:45;;;;;;;2.25;0.50;;;;;;;23.46;46.71;101416.94;7384820;19;20014;-66
2022/07/29 11:02:31;;;;;;;3.47;0.60;;;;;;;23.59;46.03;101414.91;7384627;19;20018;-66
2022/07/29 11:05:19;;;;;;;3.53;0.38;;;;;;;23.58;45.53;101409.75;7382856;19;20010;-67
2022/07/29 11:08:12;;;;;;;3.45;0.30;;;;;;;23.58;46.06;101410.56;7384059;19;20688;-66
2022/07/29 11:10:47;;;;;;;2.25;0.60;;;;;;;23.54;46.53;101409.38;7383700;19;20014;-67
2022/07/29 11:13:42;;;;;;;2.53;0.50;;;;;;;23.52;47.21;101413.38;7385955;19;20022;-66
2022/07/29 11:16:09;;;;;;;9.02;5.20;;;;;;;23.49;47.14;101413.78;7382592;19;20523;-66
2022/07/29 11:19:13;;;;;;;4.32;0.63;;;;;;;23.53;47.03;101409.59;7382851;19;20825;-66
2022/07/29 11:21:43;;;;;;;4.32;0.30;;;;;;;23.57;47.42;101414.31;7383424;19;20014;-67
2022/07/29 11:24:25;;;;;;;4.18;0.45;;;;;;;23.61;47.14;101407.47;7382734;19;20011;-67
2022/07/29 11:27:19;;;;;;;3.90;0.82;;;;;;;23.66;47.32;101409.47;7383698;19;20026;-66
2022/07/29 11:29:49;;;;;;;3.45;0.35;;;;;;;23.72;45.14;101413.97;7381757;19;20086;-67
2022/07/29 11:32:19;;;;;;;3.08;0.28;;;;;;;23.77;45.75;101411.41;7384533;19;20014;-67
2022/07/29 11:35:09;;;;;;;1.80;0.30;;;;;;;23.80;45.62;101408.25;7381796;19;20494;-65
2022/07/29 11:37:44;;;;;;;5.85;0.40;;;;;;;23.79;46.22;101415.50;7381879;19;20036;-66
2022/07/29 11:40:31;;;;;;;3.08;0.43;;;;;;;23.77;45.41;101412.22;7382010;19;20033;-66
2022/07/29 11:42:59;;;;;;;2.35;0.38;;;;;;;23.74;45.32;101415.34;7383743;19;20499;-66
2022/07/29 11:45:44;;;;;;;3.50;0.40;;;;;;;23.74;45.62;101409.97;7382632;19;20015;-66
2022/07/29 11:48:18;;;;;;;3.92;0.73;;;;;;;23.81;44.99;101412.59;7383131;19;20015;-66
2022/07/29 11:50:58;;;;;;;3.47;0.50;;;;;;;23.85;45.16;101408.41;7382812;19;20010;-67